OIAM  Mahshahr  Airport

Iran

Add Bookmark
ICAO OIAM
IATA MRX
Type Airport
Status Operational
Latitude
30° 33' 22" N
30.556200
Longitude
49° 9' 6" E
49.151901
Local (GMT +4.5 ) UTC
Jul 31, 2016 07:59 am Jul 31, 2016 03:29
Sunrise-Sunset Local UTC
Begin Civil Twilight 06:03 am 01:33
Sunrise 06:29 am 01:59
Sunset 08:09 pm 15:39
End Civil Twilight 08:35 pm 16:05
VFR
VFR
MVFR
MVFR
IFR
IFR
LIFR
LIFR
Unknown
Unavailable

Current Weather

METAR Observed VFR
OIAM 310300Z 00000KT CAVOK 30/19 Q0998 Sun, Jul 31, 2016 @ 03:00 UTC
(29 Minutes ago)
Visual Flight Rules
Wind Visibility Conditions
Calm 10 km or more
  • No significant weather
Temperatures Readings Precipitation
Current Temp
30°C
86°F
Dewpoint
19°C
66°F
Heat Index
31°C
88°
Humidity 52%
Altimeter 29.47" Hg
Sea Level Pressure 998 mb
Field Elevation
4 m
13 ft
None Recorded

Additional weather within a 92.6km radius of OIAM

Map ICAO Location
OIAG 54.4km E/NE (067°)
VFR
VFR
MVFR
MVFR
IFR
IFR
LIFR
LIFR
Unknown
Unavailable
-
-

CheckWX.com is intended as a tool to help pilots better visualize weather data. It is not intended as a substitute for an official weather briefing obtained from a Flight Service Station. CheckWX.com does not meet the FAA requirements for an official pre-flight weather briefing. Therefore, it's important that pilots still call and obtain an official FSS pre-flight weather briefing.

© 2007-2016 CheckWX.com
03:29:00 UTC